Albert-Bray Airport

Airport
ICAO code: 
LFAQ
Summary
ICAO Region: 
EUR
Territory: 
Location: 
, Picardie
Serving: 
Albert
Elevation: 
364 ft
Coordinates: 
Aerial View: 
49° 58' 17.512" N, 2° 41' 51.58" E
Metar
Observation
LFAQ 041300Z AUTO 29017KT 9999 FEW013 BKN021 BKN028 08/04 Q0998 NOSIG
Station
BRAY
Date/Time
2021-12-04 13:00:00
Wind direction
290°
Wind speed
17 kts
Lowest cloud amount
few clouds
Temperature
8°C
Dew point
4°C
Humidity
75%
QNH
998 hPa
Weather condition
n/a

Runways

Designator Length Width Surface Rops
9/27 1170 25 ASP No/No
Airport map: 
Aerial View: 

SKYbrary Partners:

Safety knowledge contributed by: